Список аэропортов
Фактическая погода:

18 октября, 10:00
Температура: +16°C (+15.7*)
Ветер: восточный 3 м/с
Давление: *765 мм
Без существ. явл.
Время (МСК)Темп. СВетерВлажностьДавлениеОблачностьОсадки
09:00+13СВ, 5 м/с82%1020 гПас прояснениями
10:00+15СВ, 5 м/с74%1020 гПаясно
11:00+16СВ, 4 м/с65%1020 гПаясно
12:00+18СВ, 4 м/с59%1020 гПаясно
13:00+20СВ, 4 м/с53%1019 гПаясно
14:00+21СВ, 5 м/с49%1019 гПаясно
15:00+22СВ, 5 м/с46%1018 гПаясно
16:00+22СВ, 4 м/с45%1018 гПаясно
17:00+22СВ, 3 м/с45%1017 гПаясно
18:00+20С, 3 м/с47%1017 гПаясно
19:00+19С, 3 м/с48%1017 гПаясно
20:00+18С, 3 м/с50%1017 гПаясно
21:00+17С, 3 м/с51%1017 гПаясно
22:00+17СВ, 4 м/с55%1017 гПаясно
23:00+16СВ, 4 м/с63%1017 гПаясно
19 октября
00:00+15СВ, 4 м/с70%1017 гПаясно
01:00+14СВ, 4 м/с76%1017 гПаясно
02:00+14СВ, 3 м/с82%1017 гПаясно
03:00+13СВ, 3 м/с86%1017 гПаясно
04:00+12СВ, 3 м/с90%1017 гПаясно
05:00+12В, 2 м/с93%1017 гПамалооблачно
06:00+12В, 2 м/с94%1017 гПас прояснениями
07:00+11В, 2 м/с96%1017 гПас прояснениями
08:00+11В, 2 м/с94%1017 гПаоблачно
09:00+12В, 2 м/с90%1017 гПаоблачно
10:00+14В, 2 м/с80%1017 гПаясно
11:00+16В, 2 м/с69%1017 гПаясно
12:00+19СВ, 2 м/с58%1016 гПаясно
13:00+20СВ, 1 м/с53%1017 гПаясно
14:00+22СВ, 1 м/с50%1016 гПаясно
15:00+22СВ, 2 м/с49%1016 гПаясно
16:00+22СВ, 2 м/с50%1016 гПаясно
17:00+22СВ, 2 м/с53%1016 гПаясно
18:00+20СВ, 1 м/с59%1016 гПаясно
19:00+19С, 2 м/с63%1016 гПаясно
20:00+18С, 2 м/с68%1016 гПаясно
21:00+17С, 2 м/с72%1015 гПаясно
22:00+16С, 1 м/с78%1015 гПаясно
23:00+15СЗ, 1 м/с84%1015 гПаясно
20 октября
00:00+15С, 2 м/с86%1015 гПаясно
01:00+14С, 1 м/с92%1015 гПаясно
02:00+13Штиль 97%1015 гПамалооблачно
03:00+13Ю, 1 м/с98%1015 гПамалооблачно
04:00+13ЮЗ, 2 м/с97%1015 гПамалооблачно
05:00+12ЮЗ, 2 м/с97%1015 гПамалооблачно
06:00+12ЮЗ, 2 м/с95%1015 гПаоблачно
07:00+11ЮЗ, 2 м/с95%1015 гПаоблачно
08:00+12ЮЗ, 2 м/с92%1015 гПамалооблачно
09:00+14З, 2 м/с82%1016 гПаоблачно